Time;durP1;ratioP1;P1;durP2;ratioP2;P2;SDS_P1;SDS_P2;PMS_P1;PMS_P2;Temp;Humidity;BMP_temperature;BMP_pressure;BME280_temperature;BME280_humidity;BME280_pressure;Samples;Min_cycle;Max_cycle;Signal;HPM_P1;HPM_P2
2023/12/27 00:01:51;;;;;;;9.60;2.28;;;9.40;99.90;;;;;;4971416;28;20053;-86
2023/12/27 00:04:18;;;;;;;2.88;2.13;;;9.40;99.90;;;;;;4988891;28;20048;-86
2023/12/27 00:06:44;;;;;;;15.23;2.92;;;9.40;99.90;;;;;;4972568;28;20110;-86
2023/12/27 00:09:10;;;;;;;4.72;2.58;;;9.40;99.90;;;;;;4971878;28;20113;-85
2023/12/27 00:11:36;;;;;;;2.97;2.03;;;9.40;99.90;;;;;;4974431;28;20057;-85
2023/12/27 00:14:02;;;;;;;8.00;3.47;;;9.40;99.90;;;;;;4974980;28;20145;-85
2023/12/27 00:16:28;;;;;;;4.63;2.17;;;9.40;99.90;;;;;;4989195;28;20057;-85
2023/12/27 00:18:54;;;;;;;7.50;2.53;;;9.40;99.90;;;;;;4987540;28;20514;-84
2023/12/27 00:21:19;;;;;;;5.20;2.47;;;9.40;99.90;;;;;;4974129;28;20033;-86
2023/12/27 00:23:45;;;;;;;6.53;2.90;;;9.40;99.90;;;;;;4987796;28;20058;-85
2023/12/27 00:26:10;;;;;;;5.28;2.10;;;9.40;99.90;;;;;;4972547;28;20498;-85
2023/12/27 00:28:36;;;;;;;4.10;2.08;;;9.40;99.90;;;;;;4973071;28;20502;-85
2023/12/27 00:31:02;;;;;;;4.43;2.50;;;9.40;99.90;;;;;;4972538;28;20539;-85
2023/12/27 00:33:27;;;;;;;5.45;2.22;;;9.40;99.90;;;;;;4973447;28;20046;-85
2023/12/27 00:35:53;;;;;;;4.18;2.10;;;9.40;99.90;;;;;;4973526;28;20018;-85
2023/12/27 00:38:19;;;;;;;7.00;2.47;;;9.40;99.90;;;;;;4974339;28;20088;-85
2023/12/27 00:40:44;;;;;;;8.88;2.78;;;9.40;99.90;;;;;;4988353;28;20491;-85
2023/12/27 00:43:10;;;;;;;3.42;1.92;;;9.40;99.90;;;;;;4988818;28;20772;-83
2023/12/27 00:45:35;;;;;;;9.20;2.25;;;9.40;99.90;;;;;;4973772;28;20022;-85
2023/12/27 00:48:01;;;;;;;4.68;2.40;;;9.40;99.90;;;;;;4990961;28;20026;-84
2023/12/27 00:50:26;;;;;;;5.88;2.03;;;9.40;99.90;;;;;;4972740;28;20417;-86
2023/12/27 00:52:52;;;;;;;5.30;2.20;;;9.40;99.90;;;;;;4971878;28;20527;-84
2023/12/27 00:55:17;;;;;;;5.15;2.08;;;9.40;99.90;;;;;;4969514;28;20399;-84
2023/12/27 00:57:43;;;;;;;4.03;2.13;;;9.40;99.90;;;;;;4972974;28;20113;-85
2023/12/27 01:00:09;;;;;;;7.75;2.40;;;9.40;99.90;;;;;;4973420;28;20037;-86
2023/12/27 01:02:35;;;;;;;5.10;2.53;;;9.40;99.90;;;;;;4974570;28;20022;-84
2023/12/27 01:05:00;;;;;;;4.28;2.20;;;9.40;99.90;;;;;;4988090;28;20026;-85
2023/12/27 01:07:26;;;;;;;7.80;2.13;;;9.40;99.90;;;;;;4973391;28;20046;-84
2023/12/27 01:09:52;;;;;;;7.00;2.38;;;9.40;99.90;;;;;;4973988;28;20047;-86
2023/12/27 01:12:17;;;;;;;4.78;2.35;;;9.40;99.90;;;;;;4990112;28;20022;-85
2023/12/27 01:14:43;;;;;;;5.43;2.25;;;9.40;99.90;;;;;;4974100;28;20081;-85
2023/12/27 01:17:09;;;;;;;6.28;2.45;;;9.40;99.90;;;;;;4972701;28;20030;-86
2023/12/27 01:19:35;;;;;;;6.57;2.78;;;9.40;99.90;;;;;;4972768;28;20049;-86
2023/12/27 01:22:00;;;;;;;4.55;2.10;;;9.40;99.90;;;;;;4971238;28;20385;-86
2023/12/27 01:24:26;;;;;;;3.67;1.98;;;9.40;99.90;;;;;;4990141;28;20056;-86
2023/12/27 01:26:52;;;;;;;5.95;2.20;;;9.40;99.90;;;;;;4971993;28;20058;-85
2023/12/27 01:29:18;;;;;;;7.72;3.40;;;9.40;99.90;;;;;;4970559;28;20077;-85
2023/12/27 01:31:43;;;;;;;6.10;2.28;;;9.40;99.90;;;;;;4971389;28;20018;-84
2023/12/27 01:34:09;;;;;;;6.68;2.00;;;9.40;99.90;;;;;;4972448;28;20117;-85
2023/12/27 01:36:34;;;;;;;7.32;2.05;;;9.40;99.90;;;;;;4990089;28;20029;-86
2023/12/27 01:39:00;;;;;;;6.28;2.45;;;9.40;99.90;;;;;;4972320;28;20411;-86
2023/12/27 01:41:25;;;;;;;6.05;2.33;;;9.40;99.90;;;;;;4970682;28;20113;-83
2023/12/27 01:43:51;;;;;;;5.53;1.95;;;9.40;99.90;;;;;;4984130;28;20048;-84
2023/12/27 01:46:16;;;;;;;4.90;1.98;;;9.40;99.90;;;;;;4969974;28;20498;-86
2023/12/27 01:48:43;;;;;;;4.70;2.17;;;9.40;99.90;;;;;;4970700;28;20534;-84
2023/12/27 01:51:09;;;;;;;4.75;2.45;;;9.40;99.90;;;;;;4988031;28;20022;-85
2023/12/27 01:53:35;;;;;;;2.50;1.98;;;9.40;99.90;;;;;;4970665;28;20022;-84
2023/12/27 01:56:01;;;;;;;7.30;2.20;;;9.40;99.90;;;;;;4971661;28;20066;-86
2023/12/27 01:58:27;;;;;;;4.07;2.05;;;9.40;99.90;;;;;;4966533;28;20400;-86
2023/12/27 02:00:56;;;;;;;5.50;2.30;;;9.40;99.90;;;;;;4972552;28;20029;-86
2023/12/27 02:03:22;;;;;;;3.75;1.90;;;9.40;99.90;;;;;;4972384;28;20042;-86
2023/12/27 02:05:49;;;;;;;4.65;2.40;;;9.40;99.90;;;;;;4968731;28;20385;-84
2023/12/27 02:08:15;;;;;;;3.60;2.22;;;9.40;99.90;;;;;;4986689;28;20073;-85
2023/12/27 02:10:42;;;;;;;5.38;2.10;;;9.40;99.90;;;;;;4971711;28;20030;-84
2023/12/27 02:13:07;;;;;;;7.03;2.03;;;9.40;99.90;;;;;;4988804;28;20469;-86
2023/12/27 02:15:35;;;;;;;5.20;2.08;;;9.40;99.90;;;;;;4971293;28;20018;-86
2023/12/27 02:18:03;;;;;;;6.13;2.33;;;9.40;99.90;;;;;;4971551;28;20105;-86
2023/12/27 02:20:29;;;;;;;5.40;1.98;;;9.40;99.90;;;;;;4971873;28;20510;-85
2023/12/27 02:22:56;;;;;;;2.33;1.75;;;9.40;99.90;;;;;;4989332;28;20049;-84
2023/12/27 02:25:22;;;;;;;7.32;2.13;;;9.40;99.90;;;;;;4991079;28;20041;-83
2023/12/27 02:27:48;;;;;;;5.43;2.45;;;9.40;99.90;;;;;;4971957;28;20500;-86
2023/12/27 02:30:21;;;;;;;2.90;1.90;;;9.40;99.90;;;;;;4992804;28;20060;-85
2023/12/27 02:32:47;;;;;;;2.40;1.80;;;9.40;99.90;;;;;;4974367;28;20054;-84
2023/12/27 02:35:13;;;;;;;5.88;2.30;;;9.40;99.90;;;;;;4975714;28;20033;-86
2023/12/27 02:37:39;;;;;;;2.55;1.92;;;9.40;99.90;;;;;;4975333;28;20030;-86
2023/12/27 02:40:05;;;;;;;2.42;1.60;;;9.40;99.90;;;;;;4995098;28;20484;-85
2023/12/27 02:42:31;;;;;;;3.13;1.77;;;9.40;99.90;;;;;;4992406;28;20491;-84
2023/12/27 02:44:57;;;;;;;3.22;1.75;;;9.40;99.90;;;;;;4991316;28;20037;-86
2023/12/27 02:47:22;;;;;;;2.63;1.95;;;9.40;99.90;;;;;;4992936;28;20098;-85
2023/12/27 02:49:48;;;;;;;3.55;2.03;;;9.40;99.90;;;;;;4975767;28;20062;-85
2023/12/27 02:52:13;;;;;;;4.70;2.08;;;9.40;99.90;;;;;;4976493;28;20105;-86
2023/12/27 02:54:39;;;;;;;2.75;2.10;;;9.40;99.90;;;;;;4975246;28;20026;-86
2023/12/27 02:57:04;;;;;;;2.65;2.15;;;9.40;99.90;;;;;;4973124;28;20093;-84
2023/12/27 02:59:30;;;;;;;3.42;2.25;;;9.40;99.90;;;;;;4972718;28;20095;-84
2023/12/27 03:01:55;;;;;;;3.90;1.90;;;9.40;99.90;;;;;;4976448;28;20030;-85
2023/12/27 03:04:21;;;;;;;5.03;2.47;;;9.40;99.90;;;;;;4974906;28;20073;-84
2023/12/27 03:06:47;;;;;;;6.50;2.47;;;9.40;99.90;;;;;;4974094;28;20034;-85
2023/12/27 03:09:12;;;;;;;4.25;1.95;;;9.40;99.90;;;;;;4975058;28;20023;-85
2023/12/27 03:11:38;;;;;;;10.40;2.38;;;9.30;99.90;;;;;;4975102;28;20022;-85
2023/12/27 03:14:04;;;;;;;9.10;2.30;;;9.40;99.90;;;;;;4974680;28;20053;-84
2023/12/27 03:16:29;;;;;;;7.07;2.35;;;9.40;99.90;;;;;;4971995;28;20506;-85
2023/12/27 03:18:56;;;;;;;8.60;2.38;;;9.30;99.90;;;;;;4990753;28;20037;-85
2023/12/27 03:21:21;;;;;;;8.05;2.35;;;9.30;99.90;;;;;;4988992;28;20015;-86
2023/12/27 03:23:47;;;;;;;5.00;2.22;;;9.30;99.90;;;;;;4988876;28;20034;-86
2023/12/27 03:26:13;;;;;;;5.80;2.35;;;9.30;99.90;;;;;;4987582;28;20076;-85
2023/12/27 03:28:38;;;;;;;11.35;2.80;;;9.40;99.90;;;;;;4974627;28;20030;-83
2023/12/27 03:31:04;;;;;;;4.97;2.20;;;9.40;99.90;;;;;;4973267;28;20022;-86
2023/12/27 03:33:30;;;;;;;2.83;2.05;;;9.30;99.90;;;;;;4973735;28;20393;-85
2023/12/27 03:35:55;;;;;;;7.05;2.45;;;9.30;99.90;;;;;;4974810;28;20546;-85
2023/12/27 03:38:21;;;;;;;5.78;2.35;;;9.30;99.90;;;;;;4974047;28;20048;-85
2023/12/27 03:40:47;;;;;;;4.90;2.47;;;9.30;99.90;;;;;;4992137;28;20476;-86
2023/12/27 03:43:12;;;;;;;9.27;2.75;;;9.30;99.90;;;;;;4991470;28;20031;-84
2023/12/27 03:45:38;;;;;;;6.30;2.50;;;9.30;99.90;;;;;;4974449;28;20146;-85
2023/12/27 03:48:04;;;;;;;4.55;2.58;;;9.30;99.90;;;;;;4976089;28;20030;-84
2023/12/27 03:50:30;;;;;;;3.58;2.53;;;9.30;99.90;;;;;;4969480;28;20424;-86
2023/12/27 03:52:56;;;;;;;7.40;2.65;;;9.30;99.90;;;;;;4974213;28;20014;-84
2023/12/27 03:55:24;;;;;;;11.95;2.85;;;9.30;99.90;;;;;;4973145;28;20062;-86
2023/12/27 03:57:50;;;;;;;3.95;2.70;;;9.40;99.90;;;;;;4991434;28;20433;-85
2023/12/27 04:00:15;;;;;;;4.38;2.40;;;9.30;99.90;;;;;;4974302;28;20096;-86
2023/12/27 04:02:41;;;;;;;6.68;2.42;;;9.30;99.90;;;;;;4973908;28;20957;-86
2023/12/27 04:05:07;;;;;;;4.45;2.30;;;9.40;99.90;;;;;;4988234;28;20442;-86
2023/12/27 04:07:33;;;;;;;6.72;2.72;;;9.30;99.90;;;;;;4974044;28;20023;-85
2023/12/27 04:09:58;;;;;;;7.75;2.95;;;9.30;99.90;;;;;;4989286;28;20065;-84
2023/12/27 04:12:24;;;;;;;8.50;2.75;;;9.30;99.90;;;;;;4973126;28;20028;-86
2023/12/27 04:14:49;;;;;;;5.05;2.75;;;9.40;99.90;;;;;;4973006;28;20035;-86
2023/12/27 04:17:15;;;;;;;3.58;2.30;;;9.40;99.90;;;;;;4985759;28;20034;-86
2023/12/27 04:19:41;;;;;;;9.45;3.03;;;9.40;99.90;;;;;;4973219;28;20038;-85
2023/12/27 04:22:06;;;;;;;8.23;2.88;;;9.30;99.90;;;;;;4972435;28;20129;-84
2023/12/27 04:24:32;;;;;;;3.80;2.42;;;9.40;99.90;;;;;;4968997;28;20030;-85
2023/12/27 04:26:57;;;;;;;11.70;2.83;;;9.40;99.90;;;;;;4973474;28;20054;-84
2023/12/27 04:29:23;;;;;;;6.28;2.53;;;9.40;99.90;;;;;;4973476;28;20037;-85
2023/12/27 04:31:49;;;;;;;4.53;2.63;;;9.40;99.90;;;;;;4973394;28;20454;-84
2023/12/27 04:34:14;;;;;;;7.68;2.55;;;9.40;99.90;;;;;;4990162;28;20716;-85
2023/12/27 04:36:40;;;;;;;3.00;2.33;;;9.40;99.90;;;;;;4973026;28;20041;-84
2023/12/27 04:39:08;;;;;;;10.75;2.90;;;9.30;99.90;;;;;;4974631;28;20027;-86
2023/12/27 04:41:34;;;;;;;7.88;2.60;;;9.30;99.90;;;;;;4986745;28;20038;-85
2023/12/27 04:43:59;;;;;;;7.03;2.85;;;9.30;99.90;;;;;;4973388;28;20019;-84
2023/12/27 04:46:25;;;;;;;10.70;2.72;;;9.30;99.90;;;;;;4970657;28;20060;-85
2023/12/27 04:48:50;;;;;;;11.55;2.95;;;9.30;99.90;;;;;;4990322;28;20057;-85
2023/12/27 04:51:16;;;;;;;5.82;2.58;;;9.30;99.90;;;;;;4973257;28;20118;-85
2023/12/27 04:53:43;;;;;;;7.10;3.38;;;9.40;99.90;;;;;;4972939;28;20080;-84
2023/12/27 04:56:08;;;;;;;3.38;2.38;;;9.30;99.90;;;;;;4974748;28;20055;-84
2023/12/27 04:58:35;;;;;;;5.40;2.45;;;9.30;99.90;;;;;;4989557;28;20041;-85
2023/12/27 05:01:05;;;;;;;5.95;2.70;;;9.30;99.90;;;;;;4990523;28;20093;-85
2023/12/27 05:03:35;;;;;;;7.95;2.70;;;9.30;99.90;;;;;;4969991;28;20045;-84
2023/12/27 05:06:01;;;;;;;3.35;2.47;;;9.30;99.90;;;;;;4982388;28;20097;-86
2023/12/27 05:08:27;;;;;;;6.18;2.60;;;9.30;99.90;;;;;;4988882;28;20031;-84
2023/12/27 05:10:52;;;;;;;3.85;2.40;;;9.30;99.90;;;;;;4972617;28;20444;-85
2023/12/27 05:13:18;;;;;;;6.30;3.13;;;9.30;99.90;;;;;;4974456;28;20026;-85
2023/12/27 05:15:43;;;;;;;4.50;2.75;;;9.30;99.90;;;;;;4970987;28;20044;-85
2023/12/27 05:18:09;;;;;;;4.28;2.50;;;9.30;99.90;;;;;;4969549;28;20511;-85
2023/12/27 05:20:35;;;;;;;4.40;2.90;;;9.30;99.90;;;;;;4972446;28;20080;-87
2023/12/27 05:23:00;;;;;;;4.03;2.90;;;9.30;99.90;;;;;;4968393;28;20018;-85
2023/12/27 05:25:26;;;;;;;7.35;2.88;;;9.30;99.90;;;;;;4972884;28;20040;-86
2023/12/27 05:27:52;;;;;;;11.57;3.20;;;9.30;99.90;;;;;;4990044;28;20036;-86
2023/12/27 05:30:17;;;;;;;3.90;2.70;;;9.30;99.90;;;;;;4972735;28;20113;-86
2023/12/27 05:32:43;;;;;;;5.55;2.97;;;9.30;99.90;;;;;;4972167;28;20037;-85
2023/12/27 05:35:10;;;;;;;6.97;3.38;;;9.30;99.90;;;;;;4975034;28;20018;-84
2023/12/27 05:37:35;;;;;;;6.70;2.88;;;9.30;99.90;;;;;;4974748;28;20169;-86
2023/12/27 05:40:01;;;;;;;6.28;3.53;;;9.30;99.90;;;;;;4973480;28;20106;-85
2023/12/27 05:42:26;;;;;;;6.82;3.47;;;9.30;99.90;;;;;;4984960;28;20181;-84
2023/12/27 05:44:52;;;;;;;7.20;3.15;;;9.30;99.90;;;;;;4972107;28;20109;-86
2023/12/27 05:47:18;;;;;;;4.50;2.97;;;9.30;99.90;;;;;;4971394;28;20045;-85
2023/12/27 05:49:44;;;;;;;7.72;3.20;;;9.30;99.90;;;;;;4970668;28;20614;-86
2023/12/27 05:52:10;;;;;;;4.15;2.35;;;9.30;99.90;;;;;;4972463;28;20046;-85
2023/12/27 05:54:36;;;;;;;4.25;2.72;;;9.30;99.90;;;;;;4972162;28;20451;-85
2023/12/27 05:57:02;;;;;;;5.50;3.13;;;9.30;99.90;;;;;;4989451;28;20031;-86
2023/12/27 05:59:27;;;;;;;6.88;2.83;;;9.30;99.90;;;;;;4989515;28;20030;-84
2023/12/27 06:01:54;;;;;;;4.88;2.80;;;9.30;99.90;;;;;;4973432;28;20030;-84
2023/12/27 06:04:20;;;;;;;5.63;3.13;;;9.30;99.90;;;;;;4971515;28;20689;-86
2023/12/27 06:06:49;;;;;;;7.95;3.00;;;9.30;99.90;;;;;;4989688;28;20488;-85
2023/12/27 06:09:15;;;;;;;6.80;2.88;;;9.30;99.90;;;;;;4969229;28;20369;-86
2023/12/27 06:11:41;;;;;;;7.88;3.25;;;9.30;99.90;;;;;;4989371;28;20605;-85
2023/12/27 06:14:06;;;;;;;13.25;3.42;;;9.30;99.90;;;;;;4989216;28;20118;-86
2023/12/27 06:16:32;;;;;;;11.00;3.88;;;9.30;99.90;;;;;;4973397;28;20458;-86
2023/12/27 06:18:59;;;;;;;6.15;2.83;;;9.30;99.90;;;;;;4970961;28;20027;-84
2023/12/27 06:21:25;;;;;;;3.90;2.65;;;9.30;99.90;;;;;;4990101;28;20027;-86
2023/12/27 06:23:51;;;;;;;5.07;3.25;;;9.30;99.90;;;;;;4971561;28;20536;-84
2023/12/27 06:26:16;;;;;;;7.80;2.78;;;9.30;99.90;;;;;;4971952;28;20034;-84
2023/12/27 06:28:43;;;;;;;6.07;3.83;;;9.30;99.90;;;;;;4970193;28;20118;-86
2023/12/27 06:31:09;;;;;;;6.75;3.13;;;9.30;99.90;;;;;;4987737;28;20480;-86
2023/12/27 06:33:34;;;;;;;6.88;3.67;;;9.30;99.90;;;;;;4971664;28;20034;-84
2023/12/27 06:36:00;;;;;;;6.47;3.42;;;9.30;99.90;;;;;;4971174;28;20571;-85
2023/12/27 06:38:26;;;;;;;6.75;3.35;;;9.30;99.90;;;;;;4971928;28;20121;-85
2023/12/27 06:40:52;;;;;;;3.97;2.83;;;9.30;99.90;;;;;;4972044;28;20046;-86
2023/12/27 06:43:17;;;;;;;7.15;3.55;;;9.30;99.90;;;;;;4968852;28;20027;-85
2023/12/27 06:45:43;;;;;;;8.23;3.70;;;9.30;99.90;;;;;;4971075;28;20026;-84
2023/12/27 06:48:09;;;;;;;5.07;2.90;;;9.20;99.90;;;;;;4989716;28;20476;-87
2023/12/27 06:50:34;;;;;;;7.93;3.17;;;9.30;99.90;;;;;;4972625;28;20109;-85
2023/12/27 06:53:00;;;;;;;6.50;3.25;;;9.20;99.90;;;;;;4965611;28;20404;-85
2023/12/27 06:55:25;;;;;;;9.75;3.72;;;9.30;99.90;;;;;;4984667;28;20089;-87
2023/12/27 06:57:51;;;;;;;6.30;3.28;;;9.30;99.90;;;;;;4985995;28;20034;-86
2023/12/27 07:00:17;;;;;;;6.97;3.58;;;9.20;99.90;;;;;;4971632;28;20022;-86
2023/12/27 07:02:42;;;;;;;5.82;3.53;;;9.30;99.90;;;;;;4973372;28;20022;-86
2023/12/27 07:05:08;;;;;;;6.10;3.20;;;9.30;99.90;;;;;;4968118;28;20046;-87
2023/12/27 07:07:34;;;;;;;7.97;3.30;;;9.30;99.90;;;;;;4972625;28;20514;-86
2023/12/27 07:10:00;;;;;;;6.53;3.28;;;9.30;99.90;;;;;;4987671;28;20076;-85
2023/12/27 07:12:27;;;;;;;5.32;3.63;;;9.20;99.90;;;;;;4990408;28;20158;-85
2023/12/27 07:14:53;;;;;;;7.15;3.22;;;9.30;99.90;;;;;;4988590;28;20109;-85
2023/12/27 07:17:20;;;;;;;5.47;3.50;;;9.30;99.90;;;;;;4971297;28;20042;-87
2023/12/27 07:19:46;;;;;;;6.97;3.17;;;9.30;99.90;;;;;;4976258;28;20030;-89
2023/12/27 07:22:11;;;;;;;6.63;3.33;;;9.30;99.90;;;;;;4975846;28;20030;-88
2023/12/27 07:24:37;;;;;;;6.10;3.80;;;9.30;99.90;;;;;;4975378;28;20092;-86
2023/12/27 07:27:03;;;;;;;6.13;3.53;;;9.30;99.90;;;;;;4993254;28;20503;-87
2023/12/27 07:29:29;;;;;;;9.25;3.25;;;9.30;99.90;;;;;;4974941;28;20396;-88
2023/12/27 07:31:54;;;;;;;6.68;3.47;;;9.30;99.90;;;;;;4973974;28;20030;-90
2023/12/27 07:34:21;;;;;;;9.27;3.70;;;9.30;99.90;;;;;;4975381;28;20022;-87
2023/12/27 07:36:48;;;;;;;9.15;3.72;;;9.30;99.90;;;;;;4976408;28;20033;-91
2023/12/27 07:39:15;;;;;;;5.43;3.60;;;9.30;99.90;;;;;;4976264;28;20515;-89
2023/12/27 07:41:42;;;;;;;5.85;3.58;;;9.30;99.90;;;;;;4977852;28;20030;-87
2023/12/27 07:44:08;;;;;;;8.68;3.65;;;9.30;99.90;;;;;;4991854;28;20411;-88
2023/12/27 07:46:34;;;;;;;9.18;3.58;;;9.30;99.90;;;;;;4993200;28;20049;-88
2023/12/27 07:49:01;;;;;;;8.20;3.85;;;9.30;99.90;;;;;;4975223;28;20053;-86
2023/12/27 07:51:26;;;;;;;5.68;3.70;;;9.30;99.90;;;;;;4990909;28;20022;-87
2023/12/27 07:53:52;;;;;;;8.82;3.75;;;9.30;99.90;;;;;;4973061;28;20080;-87
2023/12/27 07:56:18;;;;;;;8.45;4.05;;;9.30;99.90;;;;;;4974491;28;20025;-88
2023/12/27 07:58:45;;;;;;;6.00;3.67;;;9.30;99.90;;;;;;4975423;28;20658;-88
2023/12/27 08:01:11;;;;;;;9.15;3.28;;;9.30;99.90;;;;;;4992349;28;20038;-86
2023/12/27 08:03:38;;;;;;;11.70;4.28;;;9.30;99.90;;;;;;4974586;28;20034;-87
2023/12/27 08:06:04;;;;;;;8.20;3.97;;;9.30;99.90;;;;;;4992782;28;20037;-86
2023/12/27 08:08:29;;;;;;;6.30;3.50;;;9.40;99.90;;;;;;4971852;28;20022;-88
2023/12/27 08:10:55;;;;;;;7.40;3.53;;;9.30;99.90;;;;;;4966721;28;20516;-88
2023/12/27 08:13:20;;;;;;;6.43;3.58;;;9.30;99.90;;;;;;4973725;28;20023;-86
2023/12/27 08:15:46;;;;;;;6.75;3.55;;;9.40;99.90;;;;;;4972374;28;20502;-86
2023/12/27 08:18:12;;;;;;;9.70;3.85;;;9.30;99.90;;;;;;4974348;28;20491;-87
2023/12/27 08:20:37;;;;;;;6.78;4.28;;;9.40;99.90;;;;;;4990031;28;20396;-86
2023/12/27 08:23:03;;;;;;;11.57;3.83;;;9.40;99.90;;;;;;4974690;28;20375;-87
2023/12/27 08:25:29;;;;;;;8.55;3.78;;;9.40;99.90;;;;;;4992147;28;20026;-87
2023/12/27 08:27:54;;;;;;;12.30;4.53;;;9.40;99.90;;;;;;4975574;28;20040;-88
2023/12/27 08:30:20;;;;;;;11.50;4.00;;;9.40;99.90;;;;;;4977055;28;20058;-87
2023/12/27 08:32:45;;;;;;;5.85;4.10;;;9.50;99.90;;;;;;4974318;28;20037;-88
2023/12/27 08:35:11;;;;;;;8.43;3.97;;;9.50;99.90;;;;;;4974905;28;20022;-86
2023/12/27 08:37:36;;;;;;;5.88;3.55;;;9.50;99.90;;;;;;4990104;28;20038;-88
2023/12/27 08:40:02;;;;;;;11.50;4.13;;;9.50;99.90;;;;;;4975965;28;20022;-85
2023/12/27 08:42:27;;;;;;;7.97;4.55;;;9.60;99.90;;;;;;4981228;28;20125;-86
2023/12/27 08:44:53;;;;;;;10.48;4.13;;;9.60;99.90;;;;;;4974455;28;20154;-89
2023/12/27 08:47:18;;;;;;;8.38;4.53;;;9.60;99.90;;;;;;4978260;28;20089;-88
2023/12/27 08:49:44;;;;;;;9.85;4.35;;;9.50;99.90;;;;;;4991595;28;20604;-84
2023/12/27 08:52:09;;;;;;;5.07;1.88;;;9.50;99.90;;;;;;4975635;28;20018;-87
2023/12/27 08:54:35;;;;;;;5.90;3.15;;;11.90;99.90;;;;;;4975602;28;20026;-92
2023/12/27 08:57:01;;;;;;;6.70;3.60;;;11.40;99.90;;;;;;4976900;28;20029;-92
2023/12/27 08:59:26;;;;;;;9.52;3.53;;;10.70;99.90;;;;;;4977171;28;20081;-93
2023/12/27 09:01:52;;;;;;;8.02;3.75;;;10.20;99.90;;;;;;4977099;28;20038;-93
2023/12/27 09:04:19;;;;;;;6.63;4.15;;;10.00;99.90;;;;;;4976136;28;20030;-93
2023/12/27 09:06:45;;;;;;;9.50;3.70;;;9.90;99.90;;;;;;4976802;28;20118;-94
2023/12/27 09:09:11;;;;;;;10.35;4.10;;;9.90;99.90;;;;;;4981209;28;20101;-95
2023/12/27 09:11:37;;;;;;;10.02;5.07;;;9.90;99.90;;;;;;4976500;28;20019;-92
2023/12/27 09:14:02;;;;;;;9.80;4.45;;;9.80;99.90;;;;;;4976505;28;20073;-94
2023/12/27 09:16:28;;;;;;;12.55;4.57;;;9.80;99.90;;;;;;4976383;28;20065;-92
2023/12/27 09:18:53;;;;;;;7.70;4.18;;;9.80;99.90;;;;;;4976310;28;20070;-92
2023/12/27 09:21:19;;;;;;;9.68;5.00;;;9.80;99.90;;;;;;4976576;28;20029;-92
2023/12/27 09:23:45;;;;;;;8.65;4.07;;;9.80;99.90;;;;;;4975734;28;20023;-93
2023/12/27 09:26:13;;;;;;;8.52;4.32;;;9.90;99.90;;;;;;4980266;28;20109;-92
2023/12/27 09:28:39;;;;;;;7.82;4.93;;;9.90;99.90;;;;;;4981921;28;20042;-93
2023/12/27 09:31:04;;;;;;;8.90;4.97;;;9.80;99.90;;;;;;4976626;28;20053;-92
2023/12/27 09:33:30;;;;;;;9.48;4.80;;;9.90;99.90;;;;;;4980331;28;20608;-92
2023/12/27 09:35:55;;;;;;;12.57;5.85;;;9.90;99.90;;;;;;4977589;28;20492;-94
2023/12/27 09:38:21;;;;;;;12.48;5.18;;;10.00;99.90;;;;;;4974413;28;20492;-85
2023/12/27 09:40:47;;;;;;;17.67;5.95;;;10.00;99.90;;;;;;4971859;28;20574;-85
2023/12/27 09:43:15;;;;;;;12.93;5.10;;;10.00;99.90;;;;;;4974690;28;20026;-88
2023/12/27 09:45:41;;;;;;;12.43;5.28;;;10.00;99.90;;;;;;4977377;28;20428;-91
2023/12/27 09:48:11;;;;;;;8.77;4.32;;;10.00;99.90;;;;;;4981281;28;20065;-90
2023/12/27 09:50:38;;;;;;;10.30;5.13;;;10.00;99.90;;;;;;4991519;28;20030;-90
2023/12/27 09:53:05;;;;;;;9.20;4.45;;;10.00;99.90;;;;;;4970328;28;20018;-90
2023/12/27 09:55:30;;;;;;;8.98;4.80;;;10.00;99.90;;;;;;4972111;28;20037;-89
2023/12/27 09:57:56;;;;;;;14.18;5.13;;;9.90;99.90;;;;;;4975671;28;20027;-89
2023/12/27 10:00:27;;;;;;;10.75;5.25;;;9.90;99.90;;;;;;4990178;28;20492;-89
2023/12/27 10:02:58;;;;;;;11.45;5.15;;;9.90;99.90;;;;;;4972692;28;20606;-88
2023/12/27 10:05:28;;;;;;;10.30;5.53;;;9.90;99.90;;;;;;4975217;28;20092;-89
2023/12/27 10:07:53;;;;;;;9.65;4.70;;;9.90;99.90;;;;;;4974373;28;20089;-91
2023/12/27 10:10:19;;;;;;;15.40;5.50;;;9.90;99.90;;;;;;4971152;28;20057;-88
2023/12/27 10:12:46;;;;;;;11.02;5.32;;;9.90;99.90;;;;;;4974119;28;20027;-87
2023/12/27 10:15:12;;;;;;;9.20;4.70;;;9.90;99.90;;;;;;4975211;28;20068;-91
2023/12/27 10:17:38;;;;;;;12.95;4.85;;;9.90;99.90;;;;;;4974489;28;20027;-89
2023/12/27 10:20:06;;;;;;;11.38;4.65;;;9.90;99.90;;;;;;4974016;28;20022;-89
2023/12/27 10:22:31;;;;;;;8.18;4.53;;;9.90;99.90;;;;;;4972569;28;20051;-90
2023/12/27 10:24:57;;;;;;;12.18;5.07;;;9.90;99.90;;;;;;4972831;28;20062;-87
2023/12/27 10:27:23;;;;;;;14.02;5.53;;;9.90;99.90;;;;;;4977353;28;20034;-91
2023/12/27 10:29:48;;;;;;;9.95;5.38;;;9.90;99.90;;;;;;4974146;28;20022;-89
2023/12/27 10:32:18;;;;;;;9.38;4.60;;;9.90;99.90;;;;;;4984613;28;20025;-89
2023/12/27 10:34:45;;;;;;;7.53;4.25;;;9.90;99.90;;;;;;4974443;28;20491;-90
2023/12/27 10:37:12;;;;;;;10.32;4.70;;;9.90;99.90;;;;;;4974433;28;20022;-89
2023/12/27 10:39:44;;;;;;;7.00;4.00;;;10.00;99.90;;;;;;4978080;28;20031;-89
2023/12/27 10:42:16;;;;;;;8.73;3.92;;;10.10;99.90;;;;;;4974747;28;20022;-88
2023/12/27 10:44:43;;;;;;;7.50;4.07;;;10.00;99.90;;;;;;4995481;28;20033;-87
2023/12/27 10:47:11;;;;;;;10.13;3.80;;;10.10;99.90;;;;;;4977074;28;20027;-89
2023/12/27 10:49:40;;;;;;;8.02;3.53;;;10.10;99.90;;;;;;4995831;28;20022;-90
2023/12/27 10:52:08;;;;;;;6.25;4.05;;;10.10;99.90;;;;;;4978362;28;20424;-90
2023/12/27 10:54:34;;;;;;;16.40;4.65;;;10.20;99.90;;;;;;4977885;28;20093;-89
2023/12/27 10:57:01;;;;;;;7.82;3.72;;;10.30;99.90;;;;;;4976174;28;20027;-90
2023/12/27 10:59:27;;;;;;;6.72;3.67;;;10.30;99.90;;;;;;4978381;28;20496;-90
2023/12/27 11:01:53;;;;;;;8.75;3.50;;;10.30;99.90;;;;;;4978877;28;20045;-93
2023/12/27 11:04:22;;;;;;;10.98;4.25;;;10.40;99.90;;;;;;4982321;28;20078;-94
2023/12/27 11:06:49;;;;;;;3.83;2.33;;;10.40;99.90;;;;;;4976370;28;20110;-84
2023/12/27 11:09:17;;;;;;;1.77;1.40;;;11.60;99.90;;;;;;4975361;28;20026;-86
2023/12/27 11:11:43;;;;;;;3.15;1.70;;;13.00;99.90;;;;;;4974877;28;20038;-84
2023/12/27 11:14:13;;;;;;;3.15;1.70;;;13.60;99.90;;;;;;4979070;28;20033;-84
2023/12/27 11:16:39;;;;;;;;;;;13.90;99.90;;;;;;4980777;28;20574;-85
2023/12/27 11:19:06;;;;;;;5.70;3.33;;;13.70;98.10;;;;;;4976642;28;19921;-88
2023/12/27 11:21:33;;;;;;;10.15;2.70;;;10.50;97.00;;;;;;4973437;28;20113;-88
2023/12/27 11:23:59;;;;;;;9.98;3.80;;;10.90;99.90;;;;;;4991771;28;20114;-88
2023/12/27 11:26:25;;;;;;;10.38;3.42;;;10.90;94.20;;;;;;4973055;28;20065;-88
2023/12/27 11:28:51;;;;;;;5.30;3.28;;;11.00;99.90;;;;;;4992643;28;20015;-88
2023/12/27 11:31:19;;;;;;;7.32;2.72;;;11.40;99.90;;;;;;4976041;28;20034;-89
2023/12/27 11:33:46;;;;;;;6.55;3.15;;;12.50;99.90;;;;;;4978715;28;20499;-89
2023/12/27 11:36:12;;;;;;;5.50;2.90;;;13.40;99.00;;;;;;4976059;28;20093;-89
2023/12/27 11:38:39;;;;;;;7.00;2.75;;;13.60;97.50;;;;;;4975908;28;20030;-87
2023/12/27 11:41:06;;;;;;;5.88;2.80;;;13.80;97.10;;;;;;4975429;28;20480;-90
2023/12/27 11:44:03;;;;;;;6.20;2.97;;;13.80;97.20;;;;;;4975749;28;20022;-88
2023/12/27 11:46:30;;;;;;;5.55;2.50;;;13.80;97.30;;;;;;4967172;28;20030;-88
2023/12/27 11:48:58;;;;;;;8.95;2.63;;;13.90;97.60;;;;;;4975371;28;20014;-89
2023/12/27 11:51:34;;;;;;;5.30;2.22;;;13.90;97.70;;;;;;4991809;28;20024;-89
2023/12/27 11:54:01;;;;;;;3.50;2.17;;;13.90;97.70;;;;;;4971060;28;20050;-87
2023/12/27 11:56:34;;;;;;;4.32;2.25;;;13.80;97.70;;;;;;4991960;28;20538;-87
2023/12/27 11:59:01;;;;;;;6.60;2.70;;;13.80;97.30;;;;;;4975526;28;20038;-90
2023/12/27 12:01:31;;;;;;;7.47;2.45;;;13.80;97.40;;;;;;4992708;28;20022;-86
2023/12/27 12:04:15;;;;;;;;;;;13.80;97.40;;;;;;4972969;28;20409;-88
2023/12/27 12:06:56;;;;;;;8.32;2.65;;;13.80;97.40;;;;;;4979688;28;19999;-88
2023/12/27 12:09:34;;;;;;;7.95;2.47;;;13.80;97.30;;;;;;4971103;28;20661;-88
2023/12/27 12:12:23;;;;;;;8.15;2.42;;;13.90;97.10;;;;;;4983949;28;20121;-89
2023/12/27 12:14:53;;;;;;;9.68;2.78;;;13.90;97.00;;;;;;4975128;28;20479;-87
2023/12/27 12:17:19;;;;;;;;;;;13.90;97.00;;;;;;4975203;28;20038;-86
2023/12/27 12:19:47;;;;;;;5.65;2.28;;;14.00;96.60;;;;;;4992361;28;19944;-88
2023/12/27 12:22:13;;;;;;;4.13;2.35;;;13.90;96.60;;;;;;4974305;28;20041;-86
2023/12/27 12:24:39;;;;;;;6.22;2.28;;;13.90;96.60;;;;;;4991922;28;20392;-87
2023/12/27 12:27:05;;;;;;;7.25;3.45;;;13.90;96.50;;;;;;4979139;28;20027;-87
2023/12/27 12:29:31;;;;;;;11.25;3.78;;;13.20;94.90;;;;;;4973208;28;20023;-85
2023/12/27 12:31:56;;;;;;;6.25;3.30;;;11.90;97.30;;;;;;4973992;28;20010;-86
2023/12/27 12:34:23;;;;;;;8.00;3.72;;;11.20;99.40;;;;;;4972663;28;20813;-85
2023/12/27 12:36:51;;;;;;;13.25;4.60;;;10.70;99.90;;;;;;4973926;28;20038;-86
2023/12/27 12:39:17;;;;;;;15.07;4.30;;;10.40;99.90;;;;;;4994086;28;20026;-87
2023/12/27 12:41:43;;;;;;;13.57;4.38;;;10.30;99.90;;;;;;4973055;28;20038;-85
2023/12/27 12:44:10;;;;;;;8.60;3.33;;;10.20;99.90;;;;;;4973691;28;20031;-88
2023/12/27 12:46:36;;;;;;;6.80;3.38;;;10.10;99.90;;;;;;4974238;28;20034;-89
2023/12/27 12:49:03;;;;;;;8.82;3.92;;;10.00;99.90;;;;;;4968171;28;20032;-86
2023/12/27 12:51:29;;;;;;;7.60;3.75;;;10.00;99.90;;;;;;4970676;28;20445;-86